createdAt,value
2019-02-22T00:02:46.192Z,21.23
2019-02-22T00:07:50.346Z,20.27
2019-02-22T00:12:54.367Z,21.40
2019-02-22T00:17:58.378Z,17.93
2019-02-22T00:23:02.398Z,18.43
2019-02-22T00:28:06.430Z,16.27
2019-02-22T00:33:10.469Z,17.37
2019-02-22T00:38:14.511Z,17.97
2019-02-22T00:43:18.551Z,15.13
2019-02-22T00:48:22.571Z,14.20
2019-02-22T00:53:26.585Z,14.60
2019-02-22T00:58:36.057Z,16.10
2019-02-22T01:03:40.198Z,14.77
2019-02-22T01:08:44.197Z,11.03
2019-02-22T01:13:48.280Z,12.10
2019-02-22T01:18:52.326Z,11.23
2019-02-22T01:23:56.414Z,11.70
2019-02-22T01:29:00.429Z,11.37
2019-02-22T01:34:04.442Z,11.00
2019-02-22T01:39:08.473Z,10.73
2019-02-22T01:44:22.648Z,10.53
2019-02-22T01:49:26.669Z,9.97
2019-02-22T01:54:30.706Z,9.13
2019-02-22T01:59:34.716Z,8.73
2019-02-22T02:04:38.738Z,7.90
2019-02-22T02:09:42.746Z,7.73
2019-02-22T02:14:46.820Z,9.13
2019-02-22T02:19:50.847Z,8.43
2019-02-22T02:24:54.872Z,7.50
2019-02-22T02:29:58.890Z,7.50
2019-02-22T02:35:02.914Z,6.73
2019-02-22T02:40:07.466Z,7.20
2019-02-22T02:45:11.491Z,6.33
2019-02-22T02:50:17.385Z,5.97
2019-02-22T02:55:32.081Z,5.80
2019-02-22T03:00:36.093Z,5.57
2019-02-22T03:06:08.200Z,5.30
2019-02-22T03:11:20.683Z,5.43
2019-02-22T03:16:18.022Z,4.73
2019-02-22T03:21:22.022Z,5.27
2019-02-22T03:26:26.045Z,4.73
2019-02-22T03:31:30.114Z,4.93
2019-02-22T03:36:34.127Z,3.83
2019-02-22T03:41:38.144Z,3.80
2019-02-22T03:46:42.163Z,3.70
2019-02-22T03:51:46.173Z,3.33
2019-02-22T03:56:50.187Z,2.97
2019-02-22T04:01:54.192Z,3.43
2019-02-22T04:06:58.213Z,3.83
2019-02-22T04:12:02.213Z,3.83
2019-02-22T04:17:06.234Z,4.83
2019-02-22T04:22:10.254Z,4.50
2019-02-22T04:27:14.285Z,5.70
2019-02-22T04:32:18.304Z,5.53
2019-02-22T04:37:22.475Z,5.40
2019-02-22T04:42:26.524Z,5.23
2019-02-22T04:47:30.542Z,5.93
2019-02-22T04:52:34.542Z,5.83
2019-02-22T04:57:38.554Z,7.40
2019-02-22T05:02:42.600Z,8.37
2019-02-22T05:07:46.610Z,9.30
2019-02-22T05:12:50.608Z,8.67
2019-02-22T05:17:54.637Z,9.80
2019-02-22T05:23:03.855Z,12.20
2019-02-22T05:28:04.415Z,13.83
2019-02-22T05:33:08.450Z,15.37
2019-02-22T05:38:12.489Z,14.20
2019-02-22T05:43:16.564Z,14.80
2019-02-22T05:48:20.591Z,15.83
2019-02-22T05:53:24.624Z,14.70
2019-02-22T05:58:28.640Z,17.17
2019-02-22T06:03:32.644Z,16.83
2019-02-22T06:08:36.663Z,14.63
2019-02-22T06:13:40.681Z,15.00
2019-02-22T06:18:44.711Z,14.00
2019-02-22T06:23:49.046Z,9.77
2019-02-22T06:28:53.130Z,8.50
2019-02-22T06:33:57.142Z,7.80
2019-02-22T06:39:01.159Z,6.23
2019-02-22T06:44:05.163Z,5.40
2019-02-22T06:49:09.193Z,6.37
2019-02-22T06:54:13.205Z,5.93
2019-02-22T06:59:17.214Z,4.83
2019-02-22T07:04:21.235Z,4.40
2019-02-22T07:09:25.229Z,3.67
2019-02-22T07:14:29.548Z,3.27
2019-02-22T07:19:33.567Z,3.00
2019-02-22T07:24:37.680Z,3.40
2019-02-22T07:29:41.688Z,2.80
2019-02-22T07:34:45.775Z,2.93
2019-02-22T07:39:49.806Z,2.27
2019-02-22T07:44:53.825Z,2.83
2019-02-22T07:49:57.848Z,3.10
2019-02-22T07:55:01.890Z,2.70
2019-02-22T08:00:07.721Z,2.90
2019-02-22T08:05:11.833Z,2.87
2019-02-22T08:10:15.841Z,3.27
2019-02-22T08:15:19.899Z,2.93
2019-02-22T08:20:23.925Z,2.47
2019-02-22T08:25:27.954Z,2.30
2019-02-22T08:30:31.962Z,2.30
2019-02-22T08:35:35.986Z,2.40
2019-02-22T08:40:40.005Z,2.27
2019-02-22T08:45:44.066Z,3.43
2019-02-22T08:50:48.098Z,2.00
2019-02-22T08:55:52.149Z,3.13
2019-02-22T09:00:56.167Z,2.20
2019-02-22T09:06:00.193Z,1.80
2019-02-22T09:11:04.223Z,2.17
2019-02-22T09:16:08.224Z,2.23
2019-02-22T09:21:12.271Z,2.80
2019-02-22T09:26:16.300Z,1.90
2019-02-22T09:31:20.299Z,2.10
2019-02-22T09:36:24.312Z,3.20
2019-02-22T09:41:28.328Z,1.87
2019-02-22T09:46:32.359Z,2.13
2019-02-22T09:51:36.355Z,8.47
2019-02-22T09:56:40.451Z,3.27
2019-02-22T10:01:44.491Z,2.70
2019-02-22T10:06:48.499Z,1.83
2019-02-22T10:11:52.523Z,2.47
2019-02-22T10:16:56.532Z,1.90
2019-02-22T10:22:00.566Z,1.83
2019-02-22T10:27:04.747Z,2.37
2019-02-22T10:32:08.761Z,2.80
2019-02-22T10:37:12.820Z,2.10
2019-02-22T10:42:16.840Z,1.73
2019-02-22T10:47:20.877Z,1.90
2019-02-22T10:52:24.922Z,2.25
2019-02-22T10:57:28.933Z,1.98
2019-02-22T11:02:32.946Z,1.70
2019-02-22T11:07:37.366Z,1.87
2019-02-22T11:12:41.497Z,2.10
2019-02-22T11:17:45.945Z,2.15
2019-02-22T11:22:50.242Z,1.92
2019-02-22T11:27:54.332Z,2.40
2019-02-22T11:32:58.426Z,2.10
2019-02-22T11:38:02.455Z,2.30
2019-02-22T11:43:06.488Z,2.08
2019-02-22T11:48:10.498Z,2.42
2019-02-22T11:53:14.565Z,2.10
2019-02-22T11:58:18.667Z,2.02
2019-02-22T12:03:24.963Z,2.50
2019-02-22T12:08:28.556Z,2.30
2019-02-22T12:13:32.590Z,2.40
2019-02-22T12:18:37.301Z,2.50
2019-02-22T12:23:41.320Z,2.70
2019-02-22T12:28:45.333Z,2.15
2019-02-22T12:33:49.382Z,2.40
2019-02-22T12:38:53.410Z,2.08
2019-02-22T12:43:59.870Z,2.85
2019-02-22T12:49:03.168Z,2.70
2019-02-22T12:54:07.983Z,2.40
2019-02-22T12:59:12.012Z,4.67
2019-02-22T13:04:16.039Z,2.70
2019-02-22T13:09:20.078Z,2.37
2019-02-22T13:14:24.104Z,2.20
2019-02-22T13:19:28.142Z,2.10
2019-02-22T13:24:32.164Z,2.70
2019-02-22T13:29:36.185Z,2.87
2019-02-22T13:34:41.895Z,2.60
2019-02-22T13:39:45.885Z,2.83
2019-02-22T13:44:49.935Z,2.35
2019-02-22T13:49:54.023Z,2.67
2019-02-22T13:54:58.045Z,2.33
2019-02-22T14:00:02.071Z,2.87
2019-02-22T14:05:06.299Z,2.60
2019-02-22T14:10:10.337Z,2.60
2019-02-22T14:15:14.308Z,2.83
2019-02-22T14:20:18.384Z,2.57
2019-02-22T14:25:22.426Z,3.50
2019-02-22T14:30:26.613Z,2.67
2019-02-22T14:35:30.629Z,2.87
2019-02-22T14:40:35.551Z,3.17
2019-02-22T14:45:48.782Z,3.03
2019-02-22T14:50:45.381Z,3.03
2019-02-22T14:55:49.390Z,2.60
2019-02-22T15:00:53.446Z,3.20
2019-02-22T15:05:57.453Z,2.53
2019-02-22T15:11:01.480Z,2.87
2019-02-22T15:16:39.440Z,2.90
2019-02-22T15:21:43.480Z,3.20
2019-02-22T15:26:47.512Z,3.27
2019-02-22T15:31:51.524Z,3.07
2019-02-22T15:36:55.602Z,3.00
2019-02-22T15:41:59.624Z,3.23
2019-02-22T15:47:11.485Z,3.00
2019-02-22T15:52:10.369Z,2.83
2019-02-22T15:57:14.520Z,3.43
2019-02-22T16:02:18.522Z,2.93
2019-02-22T16:07:22.560Z,2.97
2019-02-22T16:12:26.604Z,3.00
2019-02-22T16:17:30.604Z,2.47
2019-02-22T16:22:34.635Z,2.63
2019-02-22T16:27:38.644Z,3.20
2019-02-22T16:32:42.667Z,2.93
2019-02-22T16:37:46.678Z,3.13
2019-02-22T16:42:50.681Z,3.33
2019-02-22T16:47:54.802Z,3.37
2019-02-22T16:52:58.813Z,3.20
2019-02-22T16:58:02.833Z,3.83
2019-02-22T17:03:06.873Z,3.83
2019-02-22T17:08:10.936Z,3.30
2019-02-22T17:13:15.036Z,3.50
2019-02-22T17:18:19.068Z,3.27
2019-02-22T17:23:23.090Z,3.73
2019-02-22T17:28:27.115Z,3.70
2019-02-22T17:33:31.260Z,3.37
2019-02-22T17:38:35.427Z,4.20
2019-02-22T17:43:39.427Z,5.03
2019-02-22T17:48:43.448Z,4.57
2019-02-22T17:53:47.494Z,4.43
2019-02-22T17:58:51.511Z,4.40
2019-02-22T18:03:55.546Z,4.00
2019-02-22T18:08:59.555Z,4.40
2019-02-22T18:14:03.591Z,3.93
2019-02-22T18:19:07.599Z,4.23
2019-02-22T18:24:11.626Z,3.90
2019-02-22T18:29:15.637Z,4.20
2019-02-22T18:34:19.659Z,4.80
2019-02-22T18:39:23.760Z,4.90
2019-02-22T18:44:27.776Z,4.00
2019-02-22T18:49:31.797Z,4.00
2019-02-22T18:54:35.812Z,3.77
2019-02-22T18:59:39.817Z,3.40
2019-02-22T19:04:43.960Z,3.73
2019-02-22T19:09:48.334Z,4.17
2019-02-22T19:14:52.679Z,3.97
2019-02-22T19:19:56.774Z,3.83
2019-02-22T19:25:01.124Z,4.03
2019-02-22T19:30:05.764Z,4.40
2019-02-22T19:35:09.830Z,4.97
2019-02-22T19:40:16.162Z,4.60
2019-02-22T19:45:20.311Z,4.57
2019-02-22T19:50:24.386Z,5.13
2019-02-22T19:55:28.493Z,5.07
2019-02-22T20:00:32.562Z,4.37
2019-02-22T20:05:36.609Z,4.63
2019-02-22T20:10:40.672Z,4.90
2019-02-22T20:15:44.761Z,7.87
2019-02-22T20:20:48.910Z,5.43
2019-02-22T20:25:53.197Z,5.03
2019-02-22T20:30:57.260Z,5.37
2019-02-22T20:36:01.320Z,5.63
2019-02-22T20:41:05.373Z,6.10
2019-02-22T20:46:09.529Z,6.03
2019-02-22T20:51:13.569Z,5.90
2019-02-22T20:56:17.623Z,5.77
2019-02-22T21:01:21.678Z,5.60
2019-02-22T21:06:25.716Z,5.50
2019-02-22T21:11:29.768Z,5.83
2019-02-22T21:16:33.815Z,6.47
2019-02-22T21:21:37.896Z,6.30
2019-02-22T21:26:41.926Z,6.60
2019-02-22T21:31:45.955Z,6.70
2019-02-22T21:36:50.003Z,6.40
2019-02-22T21:41:54.042Z,7.10
2019-02-22T21:46:58.067Z,7.20
2019-02-22T21:52:02.099Z,7.93
2019-02-22T21:57:06.108Z,6.73
2019-02-22T22:02:10.134Z,7.13
2019-02-22T22:07:14.192Z,7.87
2019-02-22T22:12:18.196Z,6.77
2019-02-22T22:17:22.219Z,6.73
2019-02-22T22:22:26.234Z,6.10
2019-02-22T22:27:30.262Z,6.27
2019-02-22T22:32:34.307Z,6.83
2019-02-22T22:37:38.315Z,6.07
2019-02-22T22:42:42.332Z,6.50
2019-02-22T22:47:46.349Z,6.03
2019-02-22T22:52:50.359Z,6.70
2019-02-22T22:57:54.372Z,6.90
2019-02-22T23:02:58.403Z,7.07
2019-02-22T23:08:02.431Z,6.63
2019-02-22T23:13:06.448Z,6.17
2019-02-22T23:18:10.513Z,5.73
2019-02-22T23:23:14.519Z,6.60
2019-02-22T23:28:18.528Z,6.73
2019-02-22T23:33:22.548Z,5.63
2019-02-22T23:38:28.128Z,5.93
2019-02-22T23:43:33.225Z,5.83
2019-02-22T23:48:37.258Z,6.33
2019-02-22T23:53:41.282Z,6.07
2019-02-22T23:58:45.287Z,5.13
